KEVB/EVB METAR and TAF weather

Enter ICAO airport designator
Station Type Date Time Source
KEVB METAR 2019/02/20 17:47 UTC NOAA

KEVB 201747Z 18017G24KT 10SM BKN027 28/20 A3011


Station Type Date Time Source
KEVB Decoded METAR 2019/02/20 17:47 UTC NOAA

New Smyrna Beach, New Smyrna Beach Municipal Airport, FL, United States (KEVB) 29-03-20N 080-56-54W
Feb 20, 2019 - 12:47 PM EST / 2019.02.20 1747 UTC
Wind: from the S (180 degrees) at 20 MPH (17 KT) gusting to 28 MPH (24 KT):0
Visibility: 10 mile(s):0
Sky conditions: mostly cloudy
Temperature: 82 F (28 C)
Dew Point: 68 F (20 C)
Relative Humidity: 61%
Pressure (altimeter): 30.11 in. Hg (1019 hPa)
ob: KEVB 201747Z 18017G24KT 10SM BKN027 28/20 A3011
cycle: 18

Station Type Date Time Source
KEVB TAF UTC NOAA

Error!


Example: see airport list